Time;durP1;ratioP1;P1;durP2;ratioP2;P2;SDS_P1;SDS_P2;PMS_P1;PMS_P2;Temp;Humidity;BMP_temperature;BMP_pressure;BME280_temperature;BME280_humidity;BME280_pressure;Samples;Min_cycle;Max_cycle;Signal;HPM_P1;HPM_P2
2022/03/19 00:02:21;;;;;;;7.07;4.90;;;;;;;;;;5001185;28;20193;-56
2022/03/19 00:04:47;;;;;;;9.07;5.17;;;;;;;;;;5001873;28;20558;-56
2022/03/19 00:07:13;;;;;;;6.73;4.73;;;;;;;;;;5008854;28;20189;-56
2022/03/19 00:09:39;;;;;;;8.40;5.27;;;;;;;;;;5000773;28;20193;-57
2022/03/19 00:12:05;;;;;;;7.90;5.37;;;;;;;;;;4999652;28;20189;-57
2022/03/19 00:14:31;;;;;;;9.57;4.93;;;;;;;;;;5005905;28;20250;-57
2022/03/19 00:16:57;;;;;;;7.63;5.10;;;;;;;;;;5002917;28;20280;-56
2022/03/19 00:19:24;;;;;;;8.80;5.50;;;;;;;;;;5004423;28;20181;-56
2022/03/19 00:21:49;;;;;;;9.83;5.43;;;;;;;;;;5004649;28;20828;-56
2022/03/19 00:24:15;;;;;;;7.47;5.20;;;;;;;;;;5008878;28;20264;-57
2022/03/19 00:26:41;;;;;;;8.50;5.30;;;;;;;;;;4998581;28;20188;-57
2022/03/19 00:29:08;;;;;;;6.57;5.60;;;;;;;;;;5001187;28;20193;-56
2022/03/19 00:31:34;;;;;;;7.83;5.30;;;;;;;;;;4993301;28;20323;-57
2022/03/19 00:34:00;;;;;;;9.23;6.30;;;;;;;;;;5002682;28;20204;-57
2022/03/19 00:36:26;;;;;;;6.63;5.70;;;;;;;;;;4998561;28;20567;-57
2022/03/19 00:38:52;;;;;;;7.10;5.53;;;;;;;;;;5000305;28;20665;-57
2022/03/19 00:41:18;;;;;;;9.10;5.07;;;;;;;;;;5002256;28;20217;-56
2022/03/19 00:43:44;;;;;;;7.70;6.00;;;;;;;;;;5001668;28;20190;-56
2022/03/19 00:46:11;;;;;;;8.43;5.70;;;;;;;;;;5004539;28;20262;-57
2022/03/19 00:48:37;;;;;;;8.03;5.47;;;;;;;;;;5004974;28;20189;-57
2022/03/19 00:51:03;;;;;;;8.97;5.47;;;;;;;;;;5009705;28;20206;-56
2022/03/19 00:53:29;;;;;;;10.67;6.07;;;;;;;;;;5011544;28;20262;-55
2022/03/19 00:55:55;;;;;;;9.63;5.53;;;;;;;;;;5012374;28;20651;-57
2022/03/19 00:58:21;;;;;;;6.47;5.23;;;;;;;;;;5008316;28;20194;-56
2022/03/19 01:00:47;;;;;;;6.90;5.27;;;;;;;;;;5005215;28;20259;-57
2022/03/19 01:03:15;;;;;;;7.27;5.37;;;;;;;;;;5007506;28;20181;-56
2022/03/19 01:05:42;;;;;;;9.40;5.53;;;;;;;;;;5007031;28;20571;-56
2022/03/19 01:08:08;;;;;;;7.00;5.07;;;;;;;;;;5006753;28;20805;-57
2022/03/19 01:10:35;;;;;;;5.63;5.03;;;;;;;;;;5006072;28;20642;-56
2022/03/19 01:13:02;;;;;;;11.47;5.63;;;;;;;;;;5010911;28;20192;-56
2022/03/19 01:15:28;;;;;;;6.73;5.30;;;;;;;;;;4999254;28;20288;-57
2022/03/19 01:17:54;;;;;;;8.80;5.33;;;;;;;;;;5004295;28;20206;-57
2022/03/19 01:20:20;;;;;;;10.00;5.40;;;;;;;;;;4996877;28;20231;-56
2022/03/19 01:22:47;;;;;;;7.47;4.90;;;;;;;;;;5003430;28;20188;-57
2022/03/19 01:25:13;;;;;;;8.47;5.27;;;;;;;;;;5000118;28;20947;-57
2022/03/19 01:27:39;;;;;;;9.47;5.17;;;;;;;;;;5000011;28;20193;-57
2022/03/19 01:30:06;;;;;;;9.20;5.53;;;;;;;;;;5000015;28;20261;-57
2022/03/19 01:32:32;;;;;;;6.73;5.20;;;;;;;;;;5001688;28;20196;-56
2022/03/19 01:34:58;;;;;;;8.73;5.97;;;;;;;;;;4999913;28;20251;-57
2022/03/19 01:37:24;;;;;;;8.47;5.30;;;;;;;;;;5002549;28;20196;-57
2022/03/19 01:39:53;;;;;;;6.50;4.93;;;;;;;;;;4990907;28;20287;-56
2022/03/19 01:42:26;;;;;;;9.50;5.50;;;;;;;;;;4997327;28;20211;-56
2022/03/19 01:44:52;;;;;;;7.80;5.37;;;;;;;;;;4998060;28;20196;-56
2022/03/19 01:47:18;;;;;;;11.33;5.43;;;;;;;;;;5003397;28;20596;-56
2022/03/19 01:49:44;;;;;;;9.30;5.93;;;;;;;;;;5003938;28;20193;-56
2022/03/19 01:52:10;;;;;;;10.17;6.57;;;;;;;;;;4999900;28;20600;-57
2022/03/19 01:54:37;;;;;;;7.60;5.70;;;;;;;;;;5001574;28;20769;-56
2022/03/19 01:57:03;;;;;;;8.20;5.53;;;;;;;;;;4991269;28;20189;-57
2022/03/19 01:59:34;;;;;;;12.27;6.17;;;;;;;;;;4998716;28;20204;-56
2022/03/19 02:02:00;;;;;;;7.30;5.57;;;;;;;;;;4993630;28;20276;-57
2022/03/19 02:04:26;;;;;;;9.10;6.37;;;;;;;;;;5003801;28;20219;-56
2022/03/19 02:06:51;;;;;;;9.97;5.80;;;;;;;;;;4996001;28;20204;-56
2022/03/19 02:09:17;;;;;;;6.13;5.33;;;;;;;;;;4995711;28;20649;-57
2022/03/19 02:11:44;;;;;;;8.57;5.57;;;;;;;;;;4993375;28;20694;-56
2022/03/19 02:14:10;;;;;;;11.53;5.73;;;;;;;;;;4992963;28;20718;-56
2022/03/19 02:16:35;;;;;;;8.30;5.80;;;;;;;;;;4996518;28;20215;-56
2022/03/19 02:19:02;;;;;;;9.57;6.23;;;;;;;;;;4993081;28;20658;-56
2022/03/19 02:21:28;;;;;;;10.57;5.70;;;;;;;;;;4997983;28;20240;-57
2022/03/19 02:26:45;;;;;;;11.30;6.07;;;;;;;;;;4999044;28;20200;-56
2022/03/19 02:29:11;;;;;;;7.13;6.43;;;;;;;;;;4994513;28;20607;-57
2022/03/19 02:31:39;;;;;;;8.50;5.87;;;;;;;;;;4995361;28;20189;-57
2022/03/19 02:34:08;;;;;;;8.70;5.90;;;;;;;;;;5003221;28;20197;-56
2022/03/19 02:36:34;;;;;;;6.93;5.77;;;;;;;;;;4998203;28;20203;-56
2022/03/19 02:39:00;;;;;;;11.70;5.50;;;;;;;;;;4991923;28;20557;-56
2022/03/19 02:41:26;;;;;;;8.37;5.60;;;;;;;;;;4996636;28;20209;-57
2022/03/19 02:43:52;;;;;;;8.60;6.10;;;;;;;;;;4997142;28;20275;-56
2022/03/19 02:46:18;;;;;;;7.47;5.60;;;;;;;;;;5013445;28;20185;-57
2022/03/19 02:48:44;;;;;;;8.23;5.43;;;;;;;;;;5002723;28;20185;-57
2022/03/19 02:51:10;;;;;;;7.73;5.77;;;;;;;;;;5003174;28;20192;-57
2022/03/19 02:53:36;;;;;;;9.97;6.20;;;;;;;;;;5004105;28;20189;-57
2022/03/19 02:56:02;;;;;;;6.93;5.73;;;;;;;;;;5005007;28;20227;-56
2022/03/19 02:58:27;;;;;;;10.53;5.80;;;;;;;;;;5003901;28;20338;-57
2022/03/19 03:00:53;;;;;;;9.93;6.23;;;;;;;;;;5006611;28;20579;-57
2022/03/19 03:03:19;;;;;;;10.43;6.40;;;;;;;;;;5006943;28;20730;-56
2022/03/19 03:05:45;;;;;;;12.70;6.00;;;;;;;;;;5004798;28;20213;-57
2022/03/19 03:08:11;;;;;;;9.20;5.67;;;;;;;;;;5005464;28;20203;-57
2022/03/19 03:10:37;;;;;;;8.87;5.27;;;;;;;;;;5003930;28;20212;-56
2022/03/19 03:13:03;;;;;;;8.90;5.43;;;;;;;;;;5006949;28;20204;-56
2022/03/19 03:15:29;;;;;;;7.03;5.67;;;;;;;;;;4995668;28;20193;-57
2022/03/19 03:17:55;;;;;;;7.93;5.53;;;;;;;;;;4994673;28;20205;-57
2022/03/19 03:20:21;;;;;;;9.40;5.53;;;;;;;;;;4997849;28;20706;-57
2022/03/19 03:22:47;;;;;;;10.63;5.40;;;;;;;;;;4994004;28;20216;-56
2022/03/19 03:25:13;;;;;;;6.87;5.13;;;;;;;;;;5011127;28;20699;-57
2022/03/19 03:27:39;;;;;;;7.17;4.90;;;;;;;;;;4999041;28;20196;-56
2022/03/19 03:30:05;;;;;;;7.87;5.27;;;;;;;;;;4995580;28;20641;-56
2022/03/19 03:32:31;;;;;;;7.83;5.60;;;;;;;;;;4988917;28;20193;-57
2022/03/19 03:34:57;;;;;;;8.53;4.73;;;;;;;;;;4993465;28;20220;-57
2022/03/19 03:37:24;;;;;;;9.33;5.13;;;;;;;;;;4992189;28;20196;-56
2022/03/19 03:39:50;;;;;;;6.77;4.93;;;;;;;;;;4991904;28;20204;-57
2022/03/19 03:42:16;;;;;;;5.97;5.20;;;;;;;;;;4993715;28;20699;-56
2022/03/19 03:44:42;;;;;;;10.93;4.90;;;;;;;;;;4990523;28;20294;-57
2022/03/19 03:47:08;;;;;;;9.93;4.60;;;;;;;;;;4992993;28;20189;-56
2022/03/19 03:49:34;;;;;;;9.70;5.10;;;;;;;;;;4999720;28;20222;-57
2022/03/19 03:52:00;;;;;;;7.40;5.10;;;;;;;;;;4997694;28;20199;-57
2022/03/19 03:54:26;;;;;;;9.83;5.10;;;;;;;;;;4990298;28;20215;-57
2022/03/19 03:56:52;;;;;;;10.93;5.30;;;;;;;;;;4993097;28;20201;-56
2022/03/19 03:59:19;;;;;;;8.63;5.40;;;;;;;;;;4998381;28;20190;-57
2022/03/19 04:01:45;;;;;;;8.27;6.10;;;;;;;;;;4992366;28;20213;-57
2022/03/19 04:04:11;;;;;;;7.23;4.93;;;;;;;;;;4992918;28;20570;-57
2022/03/19 04:06:38;;;;;;;7.97;5.43;;;;;;;;;;4997804;28;20189;-57
2022/03/19 04:09:04;;;;;;;9.30;5.23;;;;;;;;;;4990521;28;20220;-57
2022/03/19 04:11:30;;;;;;;9.57;5.17;;;;;;;;;;5000128;28;20235;-56
2022/03/19 04:13:56;;;;;;;5.63;4.97;;;;;;;;;;4998262;28;20196;-57
2022/03/19 04:16:22;;;;;;;6.53;5.23;;;;;;;;;;4998173;28;20189;-56
2022/03/19 04:18:48;;;;;;;7.43;5.20;;;;;;;;;;5002030;28;20296;-56
2022/03/19 04:21:14;;;;;;;6.87;5.00;;;;;;;;;;5001785;28;20255;-56
2022/03/19 04:23:39;;;;;;;10.33;5.40;;;;;;;;;;4995616;28;20730;-57
2022/03/19 04:26:05;;;;;;;8.50;5.10;;;;;;;;;;5000079;28;20323;-56
2022/03/19 04:28:31;;;;;;;6.90;5.10;;;;;;;;;;4994986;28;20221;-56
2022/03/19 04:30:58;;;;;;;7.17;4.90;;;;;;;;;;4999243;28;20208;-56
2022/03/19 04:33:24;;;;;;;6.30;5.37;;;;;;;;;;5001793;28;20258;-57
2022/03/19 04:38:35;;;;;;;8.20;5.40;;;;;;;;;;4999951;28;20230;-56
2022/03/19 04:41:01;;;;;;;6.53;5.20;;;;;;;;;;4999768;28;20878;-56
2022/03/19 04:43:27;;;;;;;8.90;5.17;;;;;;;;;;4996379;28;20185;-56
2022/03/19 04:45:53;;;;;;;6.83;4.73;;;;;;;;;;5002749;28;20197;-56
2022/03/19 04:48:19;;;;;;;7.70;4.73;;;;;;;;;;4999684;28;20204;-57
2022/03/19 04:50:46;;;;;;;8.47;5.00;;;;;;;;;;5006496;28;20339;-56
2022/03/19 04:53:12;;;;;;;7.93;4.93;;;;;;;;;;5008825;28;20275;-56
2022/03/19 04:55:38;;;;;;;8.43;5.03;;;;;;;;;;5009409;28;20205;-56
2022/03/19 04:58:04;;;;;;;5.77;4.90;;;;;;;;;;5008299;28;20231;-57
2022/03/19 05:00:30;;;;;;;6.67;4.77;;;;;;;;;;5011890;28;20570;-57
2022/03/19 05:02:56;;;;;;;6.73;5.00;;;;;;;;;;5009885;28;20196;-56
2022/03/19 05:05:24;;;;;;;6.90;5.20;;;;;;;;;;5008188;28;20212;-56
2022/03/19 05:07:51;;;;;;;7.40;5.23;;;;;;;;;;5008308;28;20197;-57
2022/03/19 05:13:02;;;;;;;8.50;5.40;;;;;;;;;;5010386;28;20376;-56
2022/03/19 05:15:28;;;;;;;7.03;4.73;;;;;;;;;;4999490;28;20189;-57
2022/03/19 05:17:54;;;;;;;9.30;5.47;;;;;;;;;;5004039;28;20252;-57
2022/03/19 05:20:20;;;;;;;7.37;4.60;;;;;;;;;;5001046;28;20271;-57
2022/03/19 05:22:47;;;;;;;6.20;4.90;;;;;;;;;;5007797;28;20188;-57
2022/03/19 05:25:12;;;;;;;8.17;4.87;;;;;;;;;;5011789;28;20324;-57
2022/03/19 05:27:38;;;;;;;10.63;5.23;;;;;;;;;;5013790;28;20718;-57
2022/03/19 05:30:05;;;;;;;8.83;4.73;;;;;;;;;;5007308;28;20660;-57
2022/03/19 05:32:31;;;;;;;7.77;4.90;;;;;;;;;;5011141;28;20189;-56
2022/03/19 05:34:57;;;;;;;8.73;5.30;;;;;;;;;;5010564;28;20745;-57
2022/03/19 05:37:23;;;;;;;6.17;4.60;;;;;;;;;;5008520;28;20201;-56
2022/03/19 05:39:49;;;;;;;6.50;4.80;;;;;;;;;;5009206;28;20219;-57
2022/03/19 05:42:15;;;;;;;5.57;4.60;;;;;;;;;;5008153;28;20216;-57
2022/03/19 05:44:41;;;;;;;6.37;5.20;;;;;;;;;;5008118;28;20202;-57
2022/03/19 05:47:07;;;;;;;11.57;5.37;;;;;;;;;;5007209;28;20197;-57
2022/03/19 05:49:33;;;;;;;8.00;4.97;;;;;;;;;;5005647;28;20212;-56
2022/03/19 05:51:59;;;;;;;9.30;5.03;;;;;;;;;;5007452;28;20285;-57
2022/03/19 05:54:25;;;;;;;7.57;5.37;;;;;;;;;;5009597;28;20226;-56
2022/03/19 05:56:52;;;;;;;6.83;5.23;;;;;;;;;;5007531;28;20275;-57
2022/03/19 05:59:19;;;;;;;7.13;5.60;;;;;;;;;;5008932;28;20218;-57
2022/03/19 06:01:45;;;;;;;10.60;5.70;;;;;;;;;;5008554;28;20243;-57
2022/03/19 06:04:11;;;;;;;8.70;5.70;;;;;;;;;;5006956;28;20542;-56
2022/03/19 06:06:37;;;;;;;7.43;5.27;;;;;;;;;;5006153;28;20666;-57
2022/03/19 06:09:03;;;;;;;9.93;6.00;;;;;;;;;;4999201;28;20189;-56
2022/03/19 06:11:29;;;;;;;7.60;5.47;;;;;;;;;;5005086;28;20205;-57
2022/03/19 06:13:55;;;;;;;8.23;6.10;;;;;;;;;;4998794;28;20201;-57
2022/03/19 06:16:21;;;;;;;8.83;5.43;;;;;;;;;;4999543;28;20651;-57
2022/03/19 06:18:50;;;;;;;6.77;5.87;;;;;;;;;;4996005;28;20197;-57
2022/03/19 06:21:16;;;;;;;9.00;5.43;;;;;;;;;;4994594;28;20759;-57
2022/03/19 06:23:42;;;;;;;8.40;5.67;;;;;;;;;;4999669;28;20196;-56
2022/03/19 06:26:08;;;;;;;7.03;5.93;;;;;;;;;;5003667;28;20228;-56
2022/03/19 06:28:33;;;;;;;9.07;5.90;;;;;;;;;;5006563;28;20224;-57
2022/03/19 06:30:59;;;;;;;8.93;6.13;;;;;;;;;;5006042;28;20193;-57
2022/03/19 06:33:25;;;;;;;7.37;5.80;;;;;;;;;;5007829;28;20195;-57
2022/03/19 06:38:36;;;;;;;10.50;6.30;;;;;;;;;;5005904;28;20189;-57
2022/03/19 06:41:02;;;;;;;8.23;5.53;;;;;;;;;;5010359;28;20218;-57
2022/03/19 06:43:28;;;;;;;8.83;5.80;;;;;;;;;;5005815;28;20196;-57
2022/03/19 06:46:00;;;;;;;9.80;6.20;;;;;;;;;;5005622;28;20854;-57
2022/03/19 06:48:26;;;;;;;8.33;5.93;;;;;;;;;;5008004;28;20571;-57
2022/03/19 06:50:53;;;;;;;9.17;5.80;;;;;;;;;;4998084;28;20203;-56
2022/03/19 06:53:19;;;;;;;8.80;5.97;;;;;;;;;;5002880;28;20197;-57
2022/03/19 06:55:45;;;;;;;9.17;6.17;;;;;;;;;;4999971;28;20713;-56
2022/03/19 06:58:11;;;;;;;6.57;5.90;;;;;;;;;;5000836;28;20220;-56
2022/03/19 07:00:37;;;;;;;8.97;5.93;;;;;;;;;;5001726;28;20210;-56
2022/03/19 07:03:03;;;;;;;7.10;5.63;;;;;;;;;;5006729;28;20221;-57
2022/03/19 07:05:31;;;;;;;10.13;6.00;;;;;;;;;;5014217;28;20668;-56
2022/03/19 07:07:57;;;;;;;8.83;5.23;;;;;;;;;;4999153;28;20189;-56
2022/03/19 07:10:23;;;;;;;7.53;6.30;;;;;;;;;;5003993;28;20200;-56
2022/03/19 07:12:50;;;;;;;7.93;6.13;;;;;;;;;;4999364;28;20269;-56
2022/03/19 07:15:17;;;;;;;7.73;5.83;;;;;;;;;;5006830;28;20248;-56
2022/03/19 07:17:43;;;;;;;8.07;6.40;;;;;;;;;;5001606;28;20193;-57
2022/03/19 07:20:09;;;;;;;8.63;6.60;;;;;;;;;;5002442;28;20280;-56
2022/03/19 07:22:51;;;;;;;8.93;6.97;;;;;;;;;;5009288;28;20575;-62
2022/03/19 07:25:18;;;;;;;10.63;6.77;;;;;;;;;;5004921;28;20217;-63
2022/03/19 07:27:44;;;;;;;10.37;6.73;;;;;;;;;;5007418;28;20193;-62
2022/03/19 07:30:10;;;;;;;10.13;7.60;;;;;;;;;;5003306;28;20900;-62
2022/03/19 07:32:37;;;;;;;10.53;7.00;;;;;;;;;;5007713;28;20299;-63
2022/03/19 07:35:03;;;;;;;10.97;6.30;;;;;;;;;;4995938;28;20568;-63
2022/03/19 07:37:28;;;;;;;9.37;6.50;;;;;;;;;;5000976;28;20189;-62
2022/03/19 07:39:56;;;;;;;8.03;6.43;;;;;;;;;;4998560;28;20194;-63
2022/03/19 07:42:22;;;;;;;13.03;6.27;;;;;;;;;;5000593;28;20859;-62
2022/03/19 07:44:48;;;;;;;9.43;5.83;;;;;;;;;;4997971;28;20647;-62
2022/03/19 07:47:14;;;;;;;8.63;6.07;;;;;;;;;;5007749;28;20804;-63
2022/03/19 07:49:40;;;;;;;10.53;6.43;;;;;;;;;;5000786;28;20194;-62
2022/03/19 07:52:08;;;;;;;14.30;6.70;;;;;;;;;;5001638;28;20198;-56
2022/03/19 07:54:34;;;;;;;11.47;5.93;;;;;;;;;;5000270;28;20224;-56
2022/03/19 07:57:00;;;;;;;10.73;5.90;;;;;;;;;;5002109;28;20196;-55
2022/03/19 07:59:28;;;;;;;7.87;5.60;;;;;;;;;;5002968;28;20201;-56
2022/03/19 08:01:54;;;;;;;7.70;5.20;;;;;;;;;;5003442;28;20220;-56
2022/03/19 08:04:20;;;;;;;9.33;5.37;;;;;;;;;;5005502;28;20240;-57
2022/03/19 08:06:46;;;;;;;9.07;4.77;;;;;;;;;;5002426;28;20185;-57
2022/03/19 08:09:12;;;;;;;8.10;4.83;;;;;;;;;;5007109;28;20193;-57
2022/03/19 08:11:39;;;;;;;6.03;4.70;;;;;;;;;;5005626;28;20197;-57
2022/03/19 08:14:05;;;;;;;10.57;5.23;;;;;;;;;;5008131;28;20249;-58
2022/03/19 08:16:31;;;;;;;9.60;5.30;;;;;;;;;;5006031;28;20260;-57
2022/03/19 08:18:57;;;;;;;7.63;5.30;;;;;;;;;;5001871;28;20718;-57
2022/03/19 08:21:23;;;;;;;8.67;4.67;;;;;;;;;;5004932;28;20208;-57
2022/03/19 08:23:49;;;;;;;8.83;4.90;;;;;;;;;;5007756;28;20288;-57
2022/03/19 08:26:15;;;;;;;7.70;5.17;;;;;;;;;;4998460;28;20232;-57
2022/03/19 08:28:41;;;;;;;6.77;4.67;;;;;;;;;;5006238;28;20223;-57
2022/03/19 08:31:07;;;;;;;6.80;4.40;;;;;;;;;;5003300;28;20200;-57
2022/03/19 08:33:33;;;;;;;7.70;4.77;;;;;;;;;;5006228;28;20193;-57
2022/03/19 08:35:59;;;;;;;5.83;4.53;;;;;;;;;;5008150;28;20193;-57
2022/03/19 08:41:09;;;;;;;6.17;4.50;;;;;;;;;;5004055;28;20786;-57
2022/03/19 08:43:35;;;;;;;6.77;4.23;;;;;;;;;;5001883;28;20194;-58
2022/03/19 08:46:01;;;;;;;6.97;4.23;;;;;;;;;;5002653;28;20533;-57
2022/03/19 08:48:27;;;;;;;5.90;4.00;;;;;;;;;;4997306;28;20259;-57
2022/03/19 08:50:53;;;;;;;5.03;4.30;;;;;;;;;;5004946;28;20305;-57
2022/03/19 08:53:19;;;;;;;8.70;4.10;;;;;;;;;;5000389;28;20197;-57
2022/03/19 08:55:48;;;;;;;11.00;4.67;;;;;;;;;;4992600;28;20770;-58
2022/03/19 08:58:15;;;;;;;5.90;4.20;;;;;;;;;;5003982;28;20208;-57
2022/03/19 09:00:41;;;;;;;7.63;4.00;;;;;;;;;;5007950;28;20252;-58
2022/03/19 09:03:07;;;;;;;6.37;4.10;;;;;;;;;;5000481;28;20540;-57
2022/03/19 09:05:33;;;;;;;8.13;4.20;;;;;;;;;;4989661;28;20262;-57
2022/03/19 09:07:59;;;;;;;7.07;4.07;;;;;;;;;;5001631;28;20605;-57
2022/03/19 09:10:25;;;;;;;9.83;4.57;;;;;;;;;;5012656;28;20204;-57
2022/03/19 09:12:50;;;;;;;10.33;4.43;;;;;;;;;;5012678;28;20197;-57
2022/03/19 09:15:16;;;;;;;6.40;4.20;;;;;;;;;;5010155;28;20787;-57
2022/03/19 09:17:42;;;;;;;4.60;3.90;;;;;;;;;;5014600;28;20197;-58
2022/03/19 09:20:10;;;;;;;5.67;3.80;;;;;;;;;;5013169;28;20200;-57
2022/03/19 09:22:36;;;;;;;6.33;3.73;;;;;;;;;;5010241;28;20212;-57
2022/03/19 09:25:02;;;;;;;4.67;3.90;;;;;;;;;;5014835;28;20225;-57
2022/03/19 09:27:28;;;;;;;6.03;3.57;;;;;;;;;;5012981;28;20204;-57
2022/03/19 09:29:54;;;;;;;6.57;4.17;;;;;;;;;;5009505;28;20198;-57
2022/03/19 09:32:20;;;;;;;5.27;4.10;;;;;;;;;;5011870;28;20650;-57
2022/03/19 09:34:49;;;;;;;11.15;4.50;;;;;;;;;;5011482;28;20189;-57
2022/03/19 09:37:15;;;;;;;5.00;4.32;;;;;;;;;;5012467;28;20872;-58
2022/03/19 09:39:41;;;;;;;5.40;4.22;;;;;;;;;;5006032;28;20209;-57
2022/03/19 09:42:10;;;;;;;5.78;4.20;;;;;;;;;;5007807;28;20332;-57
2022/03/19 09:44:36;;;;;;;6.05;4.15;;;;;;;;;;5010009;28;20244;-57
2022/03/19 09:47:02;;;;;;;4.90;3.80;;;;;;;;;;5004325;28;20177;-57
2022/03/19 09:49:28;;;;;;;7.25;3.60;;;;;;;;;;5007419;28;20265;-57
2022/03/19 09:51:54;;;;;;;5.57;3.20;;;;;;;;;;4997665;28;20189;-57
2022/03/19 09:54:21;;;;;;;4.60;3.33;;;;;;;;;;5010514;28;20271;-58
2022/03/19 09:56:47;;;;;;;5.05;3.45;;;;;;;;;;5012604;28;20216;-57
2022/03/19 09:59:13;;;;;;;5.45;3.70;;;;;;;;;;5010870;28;20193;-57
2022/03/19 10:01:39;;;;;;;5.50;3.60;;;;;;;;;;5010895;28;20205;-57
2022/03/19 10:04:07;;;;;;;4.97;3.40;;;;;;;;;;5010419;28;20219;-58
2022/03/19 10:09:18;;;;;;;4.63;3.28;;;;;;;;;;5009487;28;20192;-57
2022/03/19 10:11:47;;;;;;;4.32;3.10;;;;;;;;;;5008636;28;20190;-57
2022/03/19 10:14:13;;;;;;;4.45;3.35;;;;;;;;;;5012598;28;25026;-57
2022/03/19 10:16:39;;;;;;;4.60;3.13;;;;;;;;;;5007520;28;20235;-57
2022/03/19 10:19:06;;;;;;;5.82;3.08;;;;;;;;;;5011840;28;20303;-57
2022/03/19 10:21:35;;;;;;;5.32;2.80;;;;;;;;;;5004095;28;20292;-58
2022/03/19 10:24:01;;;;;;;4.43;2.90;;;;;;;;;;5008158;28;20557;-57
2022/03/19 10:26:27;;;;;;;5.45;2.90;;;;;;;;;;5008951;28;20293;-58
2022/03/19 10:28:57;;;;;;;3.63;2.60;;;;;;;;;;5010433;28;20190;-57
2022/03/19 10:31:46;;;;;;;4.05;2.70;;;;;;;;;;5007754;28;20705;-57
2022/03/19 10:34:13;;;;;;;4.50;3.00;;;;;;;;;;5007980;28;20260;-57
2022/03/19 10:36:39;;;;;;;5.07;2.90;;;;;;;;;;5007017;28;20197;-57
2022/03/19 10:39:12;;;;;;;2.58;2.38;;;;;;;;;;5009613;28;20220;-58
2022/03/19 10:41:38;;;;;;;5.78;3.00;;;;;;;;;;5010267;28;20244;-66
2022/03/19 10:44:11;;;;;;;4.78;2.90;;;;;;;;;;5009824;28;20231;-56
2022/03/19 10:46:37;;;;;;;4.45;2.72;;;;;;;;;;5009355;28;20189;-56
2022/03/19 10:49:03;;;;;;;5.65;2.90;;;;;;;;;;5012942;28;20216;-56
2022/03/19 10:51:32;;;;;;;6.43;2.78;;;;;;;;;;5010762;28;20666;-56
2022/03/19 10:53:59;;;;;;;4.75;2.70;;;;;;;;;;5013767;28;20223;-55
2022/03/19 10:56:25;;;;;;;3.10;2.60;;;;;;;;;;5012605;28;20189;-55
2022/03/19 10:58:51;;;;;;;6.65;2.80;;;;;;;;;;5012882;28;20209;-57
2022/03/19 11:01:17;;;;;;;4.57;2.65;;;;;;;;;;5008068;28;20212;-57
2022/03/19 11:03:45;;;;;;;2.58;2.35;;;;;;;;;;5003492;28;20243;-64
2022/03/19 11:06:11;;;;;;;6.65;2.80;;;;;;;;;;4998542;28;20211;-64
2022/03/19 11:08:43;;;;;;;3.00;2.33;;;;;;;;;;5004199;28;20697;-63
2022/03/19 11:11:18;;;;;;;4.75;2.50;;;;;;;;;;4992296;28;20200;-57
2022/03/19 11:13:46;;;;;;;6.20;2.65;;;;;;;;;;4998512;28;20196;-57
2022/03/19 11:16:12;;;;;;;3.38;2.80;;;;;;;;;;5003013;28;20186;-57
2022/03/19 11:18:39;;;;;;;3.85;2.50;;;;;;;;;;4998993;28;20655;-57
2022/03/19 11:21:05;;;;;;;4.03;2.55;;;;;;;;;;4997321;28;20218;-57
2022/03/19 11:23:33;;;;;;;5.93;2.80;;;;;;;;;;5001430;28;20247;-57
2022/03/19 11:25:59;;;;;;;4.75;2.83;;;;;;;;;;5004859;28;20232;-57
2022/03/19 11:28:25;;;;;;;5.38;2.25;;;;;;;;;;5007965;28;20186;-57
2022/03/19 11:31:00;;;;;;;5.25;2.72;;;;;;;;;;5010287;28;20216;-57
2022/03/19 11:33:26;;;;;;;6.07;3.17;;;;;;;;;;5009391;28;20621;-57
2022/03/19 11:35:56;;;;;;;4.03;2.60;;;;;;;;;;5008292;28;20193;-57
2022/03/19 11:38:22;;;;;;;6.05;2.75;;;;;;;;;;5004542;28;20614;-57
2022/03/19 11:40:54;;;;;;;4.72;2.70;;;;;;;;;;5001209;28;20251;-57
2022/03/19 11:43:33;;;;;;;7.05;2.50;;;;;;;;;;5005134;28;20173;-57
2022/03/19 11:46:03;;;;;;;5.28;2.80;;;;;;;;;;5008977;28;20208;-58
2022/03/19 11:48:35;;;;;;;6.03;2.60;;;;;;;;;;5004765;28;20201;-57
2022/03/19 11:51:17;;;;;;;4.60;2.65;;;;;;;;;;5007282;28;20682;-57
2022/03/19 11:54:02;;;;;;;4.75;2.63;;;;;;;;;;5009517;28;20203;-57
2022/03/19 11:56:47;;;;;;;3.25;1.75;;;;;;;;;;5009419;28;20192;-57
2022/03/19 11:59:16;;;;;;;6.82;2.30;;;;;;;;;;5011646;28;20185;-57
2022/03/19 12:01:48;;;;;;;3.20;1.92;;;;;;;;;;5010055;28;20208;-56
2022/03/19 12:04:15;;;;;;;4.78;2.10;;;;;;;;;;5008805;28;20194;-56
2022/03/19 12:06:49;;;;;;;3.80;1.98;;;;;;;;;;5003578;28;20212;-56
2022/03/19 12:09:15;;;;;;;6.85;2.30;;;;;;;;;;5004033;28;20208;-56
2022/03/19 12:11:42;;;;;;;2.97;2.10;;;;;;;;;;5009779;28;20548;-56
2022/03/19 12:14:10;;;;;;;8.30;2.65;;;;;;;;;;5003640;28;20267;-56
2022/03/19 12:16:40;;;;;;;5.13;2.00;;;;;;;;;;4997634;28;20224;-56
2022/03/19 12:19:06;;;;;;;3.90;1.80;;;;;;;;;;5008551;28;20193;-56
2022/03/19 12:21:39;;;;;;;2.08;1.83;;;;;;;;;;5005087;28;20216;-56
2022/03/19 12:24:10;;;;;;;5.57;2.03;;;;;;;;;;5000141;28;21035;-56
2022/03/19 12:26:42;;;;;;;2.40;1.83;;;;;;;;;;4999222;28;20181;-56
2022/03/19 12:29:08;;;;;;;3.35;2.13;;;;;;;;;;4994222;28;20196;-56
2022/03/19 12:31:36;;;;;;;8.57;2.70;;;;;;;;;;4988167;28;21274;-56
2022/03/19 12:34:02;;;;;;;4.43;2.42;;;;;;;;;;4996973;28;20196;-56
2022/03/19 12:36:28;;;;;;;3.88;2.60;;;;;;;;;;5005700;28;20197;-57
2022/03/19 12:38:54;;;;;;;4.97;2.63;;;;;;;;;;4995053;28;20599;-56
2022/03/19 12:41:26;;;;;;;9.77;1.85;;;;;;;;;;4989947;28;20233;-57
2022/03/19 12:43:52;;;;;;;1.85;1.65;;;;;;;;;;5002690;28;20189;-57
2022/03/19 12:46:44;;;;;;;6.40;1.70;;;;;;;;;;4993907;28;20706;-55
2022/03/19 12:49:11;;;;;;;3.38;1.60;;;;;;;;;;4996986;28;20259;-56
2022/03/19 12:51:42;;;;;;;2.90;2.15;;;;;;;;;;4997955;28;20193;-56
2022/03/19 12:54:43;;;;;;;4.68;1.67;;;;;;;;;;4983910;28;20213;-63
2022/03/19 12:57:11;;;;;;;7.20;2.50;;;;;;;;;;4976280;28;20201;-57
2022/03/19 12:59:37;;;;;;;4.47;2.00;;;;;;;;;;4993801;28;20236;-58
2022/03/19 13:02:03;;;;;;;4.38;2.22;;;;;;;;;;4995557;28;20217;-58
2022/03/19 13:04:29;;;;;;;4.72;2.50;;;;;;;;;;4997379;28;20569;-58
2022/03/19 13:06:55;;;;;;;5.60;2.17;;;;;;;;;;4999964;28;20193;-59
2022/03/19 13:09:34;;;;;;;10.52;2.72;;;;;;;;;;4999886;28;20196;-58
2022/03/19 13:12:04;;;;;;;5.45;2.03;;;;;;;;;;5001827;28;20197;-59
2022/03/19 13:14:30;;;;;;;7.43;2.63;;;;;;;;;;5003695;28;20616;-58
2022/03/19 13:16:56;;;;;;;7.18;1.90;;;;;;;;;;5004970;28;20200;-59
2022/03/19 13:19:23;;;;;;;4.88;1.90;;;;;;;;;;4987197;28;20189;-58
2022/03/19 13:21:50;;;;;;;4.78;2.10;;;;;;;;;;4984237;28;20198;-58
2022/03/19 13:24:16;;;;;;;7.28;2.30;;;;;;;;;;4994328;28;20193;-60
2022/03/19 13:26:42;;;;;;;5.63;2.20;;;;;;;;;;4992399;28;20650;-57
2022/03/19 13:29:09;;;;;;;2.80;2.05;;;;;;;;;;4980610;28;20203;-57
2022/03/19 13:31:47;;;;;;;2.40;1.90;;;;;;;;;;4978656;28;20197;-57
2022/03/19 13:34:16;;;;;;;3.10;1.80;;;;;;;;;;4994327;28;20646;-57
2022/03/19 13:36:43;;;;;;;6.88;1.98;;;;;;;;;;4999769;28;20201;-57
2022/03/19 13:39:18;;;;;;;5.85;1.92;;;;;;;;;;5002032;28;20204;-57
2022/03/19 13:41:44;;;;;;;5.97;2.20;;;;;;;;;;4992610;28;20216;-57
2022/03/19 13:44:09;;;;;;;6.05;2.05;;;;;;;;;;4994253;28;20189;-57
2022/03/19 13:46:35;;;;;;;4.25;1.88;;;;;;;;;;4992426;28;20189;-57
2022/03/19 13:49:14;;;;;;;6.43;2.53;;;;;;;;;;5006437;28;20604;-57
2022/03/19 13:51:47;;;;;;;5.20;2.40;;;;;;;;;;5007780;28;20186;-63
2022/03/19 13:54:13;;;;;;;4.13;2.50;;;;;;;;;;5003090;28;20283;-63
2022/03/19 13:56:49;;;;;;;4.15;2.30;;;;;;;;;;5005998;28;20197;-56
2022/03/19 13:59:21;;;;;;;4.28;2.08;;;;;;;;;;5004049;28;20186;-56
2022/03/19 14:01:47;;;;;;;4.38;2.40;;;;;;;;;;5007442;28;20209;-56
2022/03/19 14:04:18;;;;;;;4.43;2.50;;;;;;;;;;4996924;28;20848;-56
2022/03/19 14:06:44;;;;;;;12.07;2.65;;;;;;;;;;5006700;28;21561;-56
2022/03/19 14:09:10;;;;;;;7.30;2.72;;;;;;;;;;5002079;28;20192;-55
2022/03/19 14:11:39;;;;;;;5.30;2.35;;;;;;;;;;5000055;28;20182;-56
2022/03/19 14:14:06;;;;;;;10.20;2.38;;;;;;;;;;4996942;28;20189;-55
2022/03/19 14:16:32;;;;;;;5.72;2.30;;;;;;;;;;5002551;28;20204;-55
2022/03/19 14:19:01;;;;;;;7.95;2.50;;;;;;;;;;4996044;28;20193;-55
2022/03/19 14:21:27;;;;;;;5.25;2.53;;;;;;;;;;5001853;28;20213;-55
2022/03/19 14:23:53;;;;;;;5.82;2.65;;;;;;;;;;5005047;28;20542;-56
2022/03/19 14:26:19;;;;;;;3.72;2.20;;;;;;;;;;5008208;28;20694;-56
2022/03/19 14:28:46;;;;;;;4.28;2.33;;;;;;;;;;5002743;28;20185;-56
2022/03/19 14:31:17;;;;;;;5.10;2.72;;;;;;;;;;4998376;28;20188;-57
2022/03/19 14:33:43;;;;;;;5.15;2.05;;;;;;;;;;5001449;28;20173;-57
2022/03/19 14:36:09;;;;;;;23.65;3.42;;;;;;;;;;5001596;28;20256;-56
2022/03/19 14:38:35;;;;;;;7.97;2.67;;;;;;;;;;5002062;28;20201;-57
2022/03/19 14:41:02;;;;;;;7.38;2.63;;;;;;;;;;5001084;28;20212;-56
2022/03/19 14:43:28;;;;;;;5.32;2.30;;;;;;;;;;5000680;28;20199;-56
2022/03/19 14:45:55;;;;;;;4.22;2.33;;;;;;;;;;4998390;28;20833;-57
2022/03/19 14:48:21;;;;;;;7.03;2.30;;;;;;;;;;4994103;28;20513;-55
2022/03/19 14:50:47;;;;;;;10.30;2.70;;;;;;;;;;4999619;28;20221;-55
2022/03/19 14:53:13;;;;;;;4.17;2.33;;;;;;;;;;4998080;28;20224;-56
2022/03/19 14:55:39;;;;;;;3.30;2.10;;;;;;;;;;5000385;28;20247;-57
2022/03/19 14:58:05;;;;;;;6.20;2.53;;;;;;;;;;4994918;28;20246;-57